createdAt,value
2023-02-17T00:01:36.142Z,95463.31
2023-02-17T00:04:04.063Z,95459.72
2023-02-17T00:06:32.885Z,95465.56
2023-02-17T00:09:01.903Z,95449.88
2023-02-17T00:11:30.455Z,95458.31
2023-02-17T00:13:58.618Z,95457.25
2023-02-17T00:16:29.293Z,95457.38
2023-02-17T00:18:59.316Z,95427.34
2023-02-17T00:21:30.218Z,95453.00
2023-02-17T00:23:59.232Z,95439.81
2023-02-17T00:26:27.227Z,95447.16
2023-02-17T00:28:55.553Z,95436.91
2023-02-17T00:31:24.580Z,95442.59
2023-02-17T00:33:55.681Z,95437.06
2023-02-17T00:36:23.724Z,95426.50
2023-02-17T00:38:51.659Z,95435.72
2023-02-17T00:41:20.581Z,95431.88
2023-02-17T00:43:49.325Z,95422.84
2023-02-17T00:46:19.227Z,95426.69
2023-02-17T00:48:47.190Z,95432.53
2023-02-17T00:51:17.200Z,95434.06
2023-02-17T00:53:46.000Z,95428.38
2023-02-17T00:56:14.384Z,95436.69
2023-02-17T00:58:42.706Z,95442.13
2023-02-17T01:01:11.141Z,95435.50
2023-02-17T01:03:40.985Z,95425.50
2023-02-17T01:06:10.884Z,95426.72
2023-02-17T01:08:40.129Z,95427.34
2023-02-17T01:11:07.993Z,95420.78
2023-02-17T01:13:35.969Z,95424.06
2023-02-17T01:16:04.195Z,95428.06
2023-02-17T01:18:32.388Z,95432.59
2023-02-17T01:21:00.286Z,95426.84
2023-02-17T01:23:28.177Z,95420.88
2023-02-17T01:25:57.408Z,95416.25
2023-02-17T01:28:25.281Z,95420.47
2023-02-17T01:30:53.133Z,95414.94
2023-02-17T01:33:21.099Z,95411.75
2023-02-17T01:35:48.923Z,95406.09
2023-02-17T01:38:16.778Z,95399.63
2023-02-17T01:40:48.483Z,95409.69
2023-02-17T01:43:18.928Z,95408.56
2023-02-17T01:45:50.777Z,95415.94
2023-02-17T01:48:21.661Z,95409.16
2023-02-17T01:50:54.191Z,95407.84
2023-02-17T01:53:28.973Z,95413.28
2023-02-17T01:55:57.577Z,95421.19
2023-02-17T01:58:28.042Z,95416.56
2023-02-17T02:01:00.183Z,95408.97
2023-02-17T02:03:31.425Z,95403.72
2023-02-17T02:06:00.649Z,95404.97
2023-02-17T02:08:31.822Z,95408.13
2023-02-17T02:10:59.703Z,95406.44
2023-02-17T02:13:28.978Z,95409.16
2023-02-17T02:16:12.417Z,95402.59
2023-02-17T02:18:55.890Z,95400.66
2023-02-17T02:22:06.210Z,95394.16
2023-02-17T02:24:47.155Z,95402.94
2023-02-17T02:27:36.046Z,95393.25
2023-02-17T02:30:40.158Z,95390.75
2023-02-17T02:33:17.979Z,95383.97
2023-02-17T02:35:54.085Z,95394.03
2023-02-17T02:38:27.814Z,95394.69
2023-02-17T02:41:04.218Z,95402.34
2023-02-17T02:43:33.692Z,95407.50
2023-02-17T02:46:01.657Z,95399.16
2023-02-17T02:48:31.619Z,95400.75
2023-02-17T02:51:21.735Z,95398.97
2023-02-17T02:54:11.971Z,95402.03
2023-02-17T02:56:50.284Z,95393.59
2023-02-17T02:59:33.085Z,95387.91
2023-02-17T03:02:11.246Z,95398.53
2023-02-17T03:04:47.309Z,95381.00
2023-02-17T03:07:22.215Z,95404.53
2023-02-17T03:09:51.715Z,95396.47
2023-02-17T03:12:19.744Z,95404.06
2023-02-17T03:14:49.558Z,95405.81
2023-02-17T03:17:17.477Z,95400.69
2023-02-17T03:19:47.723Z,95403.50
2023-02-17T03:22:19.476Z,95407.09
2023-02-17T03:24:47.319Z,95405.34
2023-02-17T03:27:15.309Z,95406.97
2023-02-17T03:29:43.752Z,95407.63
2023-02-17T03:32:11.790Z,95416.13
2023-02-17T03:34:39.869Z,95408.44
2023-02-17T03:37:09.117Z,95400.88
2023-02-17T03:39:37.035Z,95395.97
2023-02-17T03:42:05.247Z,95400.19
2023-02-17T03:44:33.080Z,95408.13
2023-02-17T03:47:00.914Z,95414.06
2023-02-17T03:49:28.956Z,95397.03
2023-02-17T03:51:58.197Z,95401.81
2023-02-17T03:54:28.035Z,95392.50
2023-02-17T03:56:55.927Z,95392.63
2023-02-17T03:59:23.837Z,95397.94
2023-02-17T04:01:51.788Z,95392.91
2023-02-17T04:04:19.758Z,95407.50
2023-02-17T04:06:47.868Z,95405.22
2023-02-17T04:09:15.790Z,95393.25
2023-02-17T04:11:45.187Z,95389.75
2023-02-17T04:14:13.010Z,95402.16
2023-02-17T04:16:40.865Z,95403.41
2023-02-17T04:19:08.743Z,95401.59
2023-02-17T04:21:36.815Z,95391.50
2023-02-17T04:24:05.145Z,95394.97
2023-02-17T04:26:33.013Z,95386.72
2023-02-17T04:29:05.125Z,95391.06
2023-02-17T04:31:33.185Z,95403.03
2023-02-17T04:34:01.129Z,95401.75
2023-02-17T04:36:28.970Z,95408.50
2023-02-17T04:38:56.812Z,95415.41
2023-02-17T04:41:24.710Z,95401.84
2023-02-17T04:43:52.765Z,95400.81
2023-02-17T04:46:22.104Z,95411.00
2023-02-17T04:48:50.015Z,95401.50
2023-02-17T04:51:17.920Z,95402.31
2023-02-17T04:53:45.780Z,95410.94
2023-02-17T04:56:13.782Z,95389.53
2023-02-17T04:58:41.693Z,95409.94
2023-02-17T05:01:09.613Z,95396.91
2023-02-17T05:03:38.850Z,95404.50
2023-02-17T05:06:07.617Z,95383.34
2023-02-17T05:08:35.546Z,95404.38
2023-02-17T05:11:03.443Z,95408.72
2023-02-17T05:13:33.191Z,95425.47
2023-02-17T05:16:01.143Z,95434.44
2023-02-17T05:18:29.064Z,95425.75
2023-02-17T05:20:58.349Z,95427.06
2023-02-17T05:23:26.222Z,95414.06
2023-02-17T05:25:54.209Z,95416.50
2023-02-17T05:28:22.048Z,95436.25
2023-02-17T05:30:50.363Z,95443.06
2023-02-17T05:33:18.415Z,95429.53
2023-02-17T05:35:46.304Z,95449.63
2023-02-17T05:38:15.585Z,95456.91
2023-02-17T05:40:43.467Z,95441.53
2023-02-17T05:43:11.466Z,95453.19
2023-02-17T05:45:39.361Z,95464.59
2023-02-17T05:48:07.210Z,95462.88
2023-02-17T05:50:35.118Z,95454.00
2023-02-17T05:53:03.051Z,95454.63
2023-02-17T05:55:32.331Z,95450.56
2023-02-17T05:58:01.314Z,95460.00
2023-02-17T06:00:29.613Z,95457.47
2023-02-17T06:02:57.529Z,95456.22
2023-02-17T06:05:25.440Z,95468.34
2023-02-17T06:07:53.324Z,95469.06
2023-02-17T06:10:21.540Z,95458.38
2023-02-17T06:12:50.894Z,95463.38
2023-02-17T06:15:19.050Z,95466.84
2023-02-17T06:17:46.937Z,95469.16
2023-02-17T06:20:15.458Z,95464.88
2023-02-17T06:22:44.606Z,95449.03
2023-02-17T06:25:13.105Z,95476.19
2023-02-17T06:27:42.972Z,95466.97
2023-02-17T06:30:13.844Z,95475.00
2023-02-17T06:32:41.745Z,95475.03
2023-02-17T06:35:10.090Z,95473.59
2023-02-17T06:37:38.057Z,95451.13
2023-02-17T06:40:07.288Z,95479.28
2023-02-17T06:42:35.160Z,95477.31
2023-02-17T06:45:05.995Z,95482.06
2023-02-17T06:47:36.321Z,95478.97
2023-02-17T06:50:04.466Z,95496.72
2023-02-17T06:52:32.454Z,95494.59
2023-02-17T06:55:00.425Z,95495.81
2023-02-17T06:57:28.334Z,95482.28
2023-02-17T06:59:56.224Z,95496.44
2023-02-17T07:02:24.196Z,95487.41
2023-02-17T07:04:53.548Z,95485.16
2023-02-17T07:07:21.469Z,95492.94
2023-02-17T07:09:49.390Z,95476.75
2023-02-17T07:12:17.406Z,95491.38
2023-02-17T07:14:45.378Z,95488.53
2023-02-17T07:17:13.542Z,95495.41
2023-02-17T07:19:41.426Z,95500.03
2023-02-17T07:22:10.736Z,95500.13
2023-02-17T07:24:38.658Z,95499.16
2023-02-17T07:27:08.521Z,95496.97
2023-02-17T07:29:37.878Z,95503.63
2023-02-17T07:32:06.110Z,95509.19
2023-02-17T07:34:34.005Z,95510.78
2023-02-17T07:37:01.875Z,95510.53
2023-02-17T07:39:31.156Z,95510.66
2023-02-17T07:42:01.043Z,95517.63
2023-02-17T07:44:29.258Z,95509.94
2023-02-17T07:46:57.110Z,95501.88
2023-02-17T07:49:25.012Z,95489.50
2023-02-17T07:51:52.948Z,95501.69
2023-02-17T07:54:20.908Z,95503.09
2023-02-17T07:56:50.174Z,95504.88
2023-02-17T07:59:18.257Z,95499.38
2023-02-17T08:01:46.334Z,95499.38
2023-02-17T08:04:14.443Z,95505.84
2023-02-17T08:06:42.318Z,95500.78
2023-02-17T08:09:29.139Z,95497.94
2023-02-17T08:12:16.195Z,95502.03
2023-02-17T08:14:44.145Z,95503.97
2023-02-17T08:17:12.231Z,95496.63
2023-02-17T08:19:48.083Z,95495.16
2023-02-17T08:22:17.166Z,95480.69
2023-02-17T08:24:45.258Z,95489.78
2023-02-17T08:27:15.932Z,95496.34
2023-02-17T08:29:44.684Z,95480.88
2023-02-17T08:32:13.067Z,95492.47
2023-02-17T08:34:41.440Z,95501.97
2023-02-17T08:37:11.047Z,95498.09
2023-02-17T08:39:39.342Z,95487.16
2023-02-17T08:42:07.297Z,95491.84
2023-02-17T08:44:37.833Z,95481.41
2023-02-17T08:47:06.943Z,95487.13
2023-02-17T08:49:35.029Z,95489.91
2023-02-17T08:52:03.534Z,95487.53
2023-02-17T08:54:31.494Z,95483.69
2023-02-17T08:56:59.692Z,95492.59
2023-02-17T08:59:27.573Z,95484.84
2023-02-17T09:01:56.863Z,95482.78
2023-02-17T09:04:25.059Z,95488.78
2023-02-17T09:06:56.054Z,95486.06
2023-02-17T09:09:27.915Z,95481.66
2023-02-17T09:11:57.597Z,95482.59
2023-02-17T09:14:25.706Z,95473.50
2023-02-17T09:16:54.864Z,95478.63
2023-02-17T09:19:24.902Z,95482.66
2023-02-17T09:21:52.822Z,95485.22
2023-02-17T09:24:20.948Z,95466.09
2023-02-17T09:26:49.132Z,95476.50
2023-02-17T09:29:17.078Z,95477.88
2023-02-17T09:31:46.190Z,95480.09
2023-02-17T09:34:15.258Z,95480.69
2023-02-17T09:36:44.656Z,95469.16
2023-02-17T09:39:14.147Z,95450.13
2023-02-17T09:41:47.297Z,95477.13
2023-02-17T09:44:22.825Z,95489.94
2023-02-17T09:47:02.157Z,95475.84
2023-02-17T09:49:36.492Z,95465.38
2023-02-17T09:52:12.764Z,95457.19
2023-02-17T09:54:50.680Z,95473.22
2023-02-17T09:57:22.306Z,95471.59
2023-02-17T09:59:54.422Z,95453.81
2023-02-17T10:02:30.851Z,95461.09
2023-02-17T10:05:04.070Z,95458.44
2023-02-17T10:07:38.114Z,95448.81
2023-02-17T10:10:12.348Z,95451.88
2023-02-17T10:12:45.642Z,95451.50
2023-02-17T10:15:19.408Z,95432.63
2023-02-17T10:17:55.556Z,95439.44
2023-02-17T10:20:26.883Z,95437.31
2023-02-17T10:23:02.899Z,95433.38
2023-02-17T10:25:47.292Z,95426.84
2023-02-17T10:28:19.773Z,95448.22
2023-02-17T10:30:57.175Z,95425.47
2023-02-17T10:33:30.444Z,95411.66
2023-02-17T10:36:11.975Z,95416.03
2023-02-17T10:38:50.611Z,95415.56
2023-02-17T10:41:23.825Z,95402.56
2023-02-17T10:43:52.164Z,95418.66
2023-02-17T10:46:26.285Z,95404.13
2023-02-17T10:48:56.257Z,95410.06
2023-02-17T10:51:26.943Z,95404.84
2023-02-17T10:54:01.034Z,95408.06
2023-02-17T10:56:36.725Z,95401.09
2023-02-17T10:59:09.902Z,95393.47
2023-02-17T11:01:38.260Z,95404.94
2023-02-17T11:04:08.580Z,95389.16
2023-02-17T11:06:39.523Z,95402.22
2023-02-17T11:09:20.123Z,95400.00
2023-02-17T11:11:56.421Z,95390.16
2023-02-17T11:14:29.016Z,95392.78
2023-02-17T11:17:00.209Z,95389.28
2023-02-17T11:19:30.500Z,95371.63
2023-02-17T11:22:00.560Z,95386.59
2023-02-17T11:24:31.744Z,95373.06
2023-02-17T11:27:10.661Z,95359.50
2023-02-17T11:29:38.889Z,95378.13
2023-02-17T11:32:09.291Z,95378.84
2023-02-17T11:34:39.537Z,95376.69
2023-02-17T11:37:22.324Z,95372.84
2023-02-17T11:39:54.519Z,95369.13
2023-02-17T11:42:23.765Z,95364.06
2023-02-17T11:44:52.818Z,95354.34
2023-02-17T11:47:32.042Z,95363.56
2023-02-17T11:50:39.014Z,95362.56
2023-02-17T11:53:21.594Z,95361.13
2023-02-17T11:56:02.858Z,95358.16
2023-02-17T11:58:46.829Z,95358.03
2023-02-17T12:01:31.047Z,95358.28
2023-02-17T12:04:24.685Z,95340.69
2023-02-17T12:07:06.646Z,95345.03
2023-02-17T12:09:44.987Z,95331.53
2023-02-17T12:12:23.499Z,95337.72
2023-02-17T12:15:04.490Z,95336.66
2023-02-17T12:17:44.270Z,95317.00
2023-02-17T12:20:32.900Z,95332.56
2023-02-17T12:23:14.749Z,95308.84
2023-02-17T12:25:49.429Z,95315.56
2023-02-17T12:28:42.768Z,95306.47
2023-02-17T12:31:22.879Z,95317.38
2023-02-17T12:33:59.126Z,95291.38
2023-02-17T12:36:31.651Z,95309.34
2023-02-17T12:39:04.375Z,95295.53
2023-02-17T12:41:37.471Z,95294.13
2023-02-17T12:44:13.291Z,95279.13
2023-02-17T12:46:44.244Z,95289.44
2023-02-17T12:49:17.872Z,95289.56
2023-02-17T12:51:51.130Z,95286.78
2023-02-17T12:54:24.788Z,95275.03
2023-02-17T12:57:14.693Z,95272.56
2023-02-17T12:59:45.891Z,95263.44
2023-02-17T13:02:16.118Z,95287.56
2023-02-17T13:04:46.264Z,95276.25
2023-02-17T13:07:28.219Z,95272.53
2023-02-17T13:09:57.924Z,95285.03
2023-02-17T13:12:40.548Z,95275.06
2023-02-17T13:15:38.182Z,95275.16
2023-02-17T13:18:08.663Z,95268.56
2023-02-17T13:20:45.867Z,95278.69
2023-02-17T13:23:15.437Z,95268.97
2023-02-17T13:25:43.372Z,95298.41
2023-02-17T13:28:31.768Z,95279.28
2023-02-17T13:31:10.609Z,95263.91
2023-02-17T13:33:44.224Z,95277.94
2023-02-17T13:36:22.502Z,95262.94
2023-02-17T13:39:03.032Z,95259.75
2023-02-17T13:41:35.666Z,95261.75
2023-02-17T13:44:27.011Z,95254.53
2023-02-17T13:47:00.032Z,95267.69
2023-02-17T13:49:29.471Z,95259.50
2023-02-17T13:52:08.924Z,95266.13
2023-02-17T13:54:36.880Z,95264.72
2023-02-17T13:57:05.007Z,95254.44
2023-02-17T13:59:33.011Z,95258.53
2023-02-17T14:02:02.272Z,95252.44
2023-02-17T14:04:32.578Z,95266.03
2023-02-17T14:07:05.269Z,95266.25
2023-02-17T14:09:35.373Z,95230.25
2023-02-17T14:12:05.644Z,95249.81
2023-02-17T14:14:35.497Z,95244.84
2023-02-17T14:17:06.992Z,95252.31
2023-02-17T14:19:44.426Z,95244.03
2023-02-17T14:22:26.496Z,95244.16
2023-02-17T14:25:10.301Z,95254.16
2023-02-17T14:27:44.923Z,95264.72
2023-02-17T14:30:17.027Z,95258.06
2023-02-17T14:32:47.297Z,95247.63
2023-02-17T14:35:24.956Z,95263.53
2023-02-17T14:37:53.324Z,95253.00
2023-02-17T14:40:24.502Z,95263.66
2023-02-17T14:42:53.829Z,95260.63
2023-02-17T14:45:22.825Z,95256.97
2023-02-17T14:47:53.984Z,95251.09
2023-02-17T14:50:22.436Z,95261.56
2023-02-17T14:52:53.135Z,95259.16
2023-02-17T14:55:30.753Z,95241.88
2023-02-17T14:57:59.362Z,95241.75
2023-02-17T15:00:27.891Z,95258.59
2023-02-17T15:02:57.619Z,95259.84
2023-02-17T15:05:25.904Z,95267.13
2023-02-17T15:08:03.889Z,95259.94
2023-02-17T15:10:36.477Z,95259.81
2023-02-17T15:13:04.584Z,95240.28
2023-02-17T15:15:32.769Z,95263.53
2023-02-17T15:18:14.332Z,95247.09
2023-02-17T15:21:02.909Z,95245.88
2023-02-17T15:23:35.355Z,95265.38
2023-02-17T15:26:03.265Z,95250.00
2023-02-17T15:28:31.188Z,95268.66
2023-02-17T15:30:59.809Z,95276.44
2023-02-17T15:33:29.221Z,95282.19
2023-02-17T15:35:57.446Z,95266.75
2023-02-17T15:38:27.526Z,95279.16
2023-02-17T15:40:58.729Z,95274.28
2023-02-17T15:46:14.363Z,95282.50
2023-02-17T15:48:45.105Z,95270.50
2023-02-17T15:51:15.073Z,95290.72
2023-02-17T15:53:43.143Z,95283.34
2023-02-17T15:56:14.787Z,95289.25
2023-02-17T15:58:43.210Z,95293.09
2023-02-17T16:01:17.999Z,95291.34
2023-02-17T16:03:47.397Z,95294.97
2023-02-17T16:06:15.307Z,95299.59
2023-02-17T16:08:43.977Z,95307.16
2023-02-17T16:11:13.928Z,95316.94
2023-02-17T16:13:42.609Z,95309.78
2023-02-17T16:16:17.078Z,95321.19
2023-02-17T16:18:45.038Z,95310.66
2023-02-17T16:21:14.594Z,95328.88
2023-02-17T16:23:42.912Z,95322.19
2023-02-17T16:26:17.286Z,95313.03
2023-02-17T16:28:45.750Z,95328.66
2023-02-17T16:31:13.766Z,95336.00
2023-02-17T16:33:41.723Z,95327.53
2023-02-17T16:36:17.482Z,95335.78
2023-02-17T16:38:49.282Z,95337.56
2023-02-17T16:41:19.154Z,95325.94
2023-02-17T16:43:47.167Z,95350.03
2023-02-17T16:46:24.578Z,95339.28
2023-02-17T16:48:52.507Z,95335.91
2023-02-17T16:51:21.890Z,95344.00
2023-02-17T16:53:50.074Z,95349.75
2023-02-17T16:56:20.950Z,95322.06
2023-02-17T16:58:48.934Z,95331.78
2023-02-17T17:01:16.967Z,95345.63
2023-02-17T17:03:45.256Z,95342.81
2023-02-17T17:06:24.624Z,95345.56
2023-02-17T17:08:53.378Z,95344.44
2023-02-17T17:11:23.601Z,95353.19
2023-02-17T17:13:51.555Z,95353.38
2023-02-17T17:16:22.575Z,95353.81
2023-02-17T17:18:50.607Z,95349.41
2023-02-17T17:21:20.432Z,95338.66
2023-02-17T17:23:50.697Z,95348.28
2023-02-17T17:26:24.412Z,95342.38
2023-02-17T17:28:52.879Z,95340.47
2023-02-17T17:31:21.300Z,95333.78
2023-02-17T17:33:49.992Z,95335.34
2023-02-17T17:36:24.546Z,95331.28
2023-02-17T17:38:55.077Z,95338.84
2023-02-17T17:41:23.978Z,95335.53
2023-02-17T17:43:52.318Z,95332.78
2023-02-17T17:46:22.767Z,95337.78
2023-02-17T17:48:50.724Z,95334.19
2023-02-17T17:51:21.509Z,95334.72
2023-02-17T17:53:50.184Z,95319.75
2023-02-17T17:56:21.378Z,95332.50
2023-02-17T17:58:49.352Z,95328.06
2023-02-17T18:01:19.335Z,95329.50
2023-02-17T18:03:47.567Z,95316.59
2023-02-17T18:06:20.125Z,95336.09
2023-02-17T18:08:49.324Z,95319.34
2023-02-17T18:11:20.305Z,95335.28
2023-02-17T18:13:51.694Z,95331.94
2023-02-17T18:16:21.214Z,95332.53
2023-02-17T18:18:50.026Z,95327.13
2023-02-17T18:21:18.392Z,95325.66
2023-02-17T18:23:47.215Z,95318.47
2023-02-17T18:26:16.423Z,95320.75
2023-02-17T18:28:45.813Z,95326.09
2023-02-17T18:31:16.803Z,95323.34
2023-02-17T18:33:45.048Z,95326.38
2023-02-17T18:36:15.873Z,95316.50
2023-02-17T18:38:44.245Z,95317.78
2023-02-17T18:41:18.342Z,95311.53
2023-02-17T18:43:50.609Z,95326.50
2023-02-17T18:46:18.790Z,95318.13
2023-02-17T18:48:49.377Z,95327.16
2023-02-17T18:51:23.194Z,95327.22
2023-02-17T18:53:51.608Z,95312.84
2023-02-17T18:56:22.496Z,95317.47
2023-02-17T18:58:53.052Z,95320.28
2023-02-17T19:01:22.746Z,95332.84
2023-02-17T19:03:52.090Z,95334.03
2023-02-17T19:06:22.574Z,95337.66
2023-02-17T19:08:52.407Z,95342.31
2023-02-17T19:11:22.727Z,95347.66
2023-02-17T19:13:52.915Z,95345.59
2023-02-17T19:16:23.068Z,95355.03
2023-02-17T19:18:51.684Z,95343.31
2023-02-17T19:21:20.258Z,95338.56
2023-02-17T19:23:48.420Z,95335.03
2023-02-17T19:26:17.851Z,95358.19
2023-02-17T19:28:46.443Z,95367.75
2023-02-17T19:31:17.647Z,95357.50
2023-02-17T19:33:45.822Z,95361.59
2023-02-17T19:36:16.102Z,95368.16
2023-02-17T19:38:44.141Z,95354.34
2023-02-17T19:41:14.606Z,95357.78
2023-02-17T19:43:43.198Z,95362.66
2023-02-17T19:46:13.069Z,95363.56
2023-02-17T19:48:42.459Z,95363.47
2023-02-17T19:51:14.035Z,95362.78
2023-02-17T19:53:45.447Z,95360.31
2023-02-17T19:56:15.506Z,95352.84
2023-02-17T19:58:45.207Z,95362.25
2023-02-17T20:01:15.305Z,95358.31
2023-02-17T20:03:44.757Z,95352.91
2023-02-17T20:06:16.692Z,95350.19
2023-02-17T20:08:45.305Z,95340.91
2023-02-17T20:11:14.377Z,95340.38
2023-02-17T20:13:46.198Z,95338.88
2023-02-17T20:16:16.042Z,95336.53
2023-02-17T20:18:47.573Z,95332.06
2023-02-17T20:21:18.021Z,95336.00
2023-02-17T20:23:46.517Z,95335.16
2023-02-17T20:26:16.006Z,95343.09
2023-02-17T20:28:44.300Z,95339.50
2023-02-17T20:31:13.410Z,95343.03
2023-02-17T20:33:41.602Z,95325.34
2023-02-17T20:36:11.963Z,95347.69
2023-02-17T20:38:40.015Z,95327.28
2023-02-17T20:41:09.808Z,95328.09
2023-02-17T20:43:38.749Z,95350.16
2023-02-17T20:46:07.657Z,95348.53
2023-02-17T20:48:35.849Z,95361.59
2023-02-17T20:51:05.779Z,95344.56
2023-02-17T20:53:35.138Z,95353.81
2023-02-17T20:56:03.419Z,95351.00
2023-02-17T20:58:31.252Z,95357.66
2023-02-17T21:00:59.259Z,95360.34
2023-02-17T21:03:27.197Z,95363.09
2023-02-17T21:05:55.094Z,95359.53
2023-02-17T21:08:23.065Z,95367.28
2023-02-17T21:10:52.340Z,95356.94
2023-02-17T21:13:22.749Z,95367.53
2023-02-17T21:15:51.211Z,95366.69
2023-02-17T21:18:19.218Z,95360.81
2023-02-17T21:20:47.122Z,95357.41
2023-02-17T21:23:15.957Z,95358.38
2023-02-17T21:25:46.315Z,95344.00
2023-02-17T21:28:17.488Z,95355.03
2023-02-17T21:30:47.185Z,95349.59
2023-02-17T21:33:15.222Z,95330.28
2023-02-17T21:35:43.200Z,95353.31
2023-02-17T21:38:12.265Z,95352.22
2023-02-17T21:40:40.139Z,95343.81
2023-02-17T21:43:25.759Z,95342.13
2023-02-17T21:45:55.074Z,95342.84
2023-02-17T21:48:23.142Z,95330.91
2023-02-17T21:50:50.995Z,95342.72
2023-02-17T21:53:19.002Z,95345.19
2023-02-17T21:55:47.584Z,95338.91
2023-02-17T21:58:15.464Z,95345.00
2023-02-17T22:00:43.395Z,95335.91
2023-02-17T22:03:12.660Z,95338.28
2023-02-17T22:05:40.536Z,95340.13
2023-02-17T22:08:08.459Z,95342.13
2023-02-17T22:10:38.401Z,95339.44
2023-02-17T22:13:07.178Z,95339.00
2023-02-17T22:15:35.574Z,95340.50
2023-02-17T22:18:03.776Z,95343.09
2023-02-17T22:20:33.035Z,95344.66
2023-02-17T22:23:00.920Z,95348.75
2023-02-17T22:25:28.813Z,95334.91
2023-02-17T22:27:57.017Z,95337.63
2023-02-17T22:30:25.596Z,95335.34
2023-02-17T22:32:53.560Z,95334.69
2023-02-17T22:35:22.052Z,95335.13
2023-02-17T22:37:51.342Z,95331.59
2023-02-17T22:40:19.382Z,95328.19
2023-02-17T22:42:47.333Z,95321.78
2023-02-17T22:45:15.232Z,95326.66
2023-02-17T22:47:43.645Z,95319.06
2023-02-17T22:50:11.689Z,95327.81
2023-02-17T22:52:39.594Z,95323.84
2023-02-17T22:55:09.869Z,95314.03
2023-02-17T22:57:37.772Z,95325.72
2023-02-17T23:00:06.777Z,95328.22
2023-02-17T23:02:35.782Z,95329.31
2023-02-17T23:05:04.000Z,95322.81
2023-02-17T23:07:31.888Z,95330.38
2023-02-17T23:09:59.796Z,95330.94
2023-02-17T23:12:29.387Z,95328.09
2023-02-17T23:14:57.295Z,95327.75
2023-02-17T23:17:25.202Z,95321.44
2023-02-17T23:19:53.091Z,95329.13
2023-02-17T23:22:20.990Z,95317.88
2023-02-17T23:24:49.373Z,95311.50
2023-02-17T23:27:17.395Z,95314.31
2023-02-17T23:29:46.607Z,95303.38
2023-02-17T23:32:18.226Z,95318.97
2023-02-17T23:34:46.110Z,95307.50
2023-02-17T23:37:13.972Z,95317.13
2023-02-17T23:39:41.909Z,95313.31
2023-02-17T23:42:09.761Z,95318.72
2023-02-17T23:44:37.654Z,95308.56
2023-02-17T23:47:06.896Z,95300.38
2023-02-17T23:49:34.732Z,95307.28
2023-02-17T23:52:02.668Z,95302.63
2023-02-17T23:54:30.544Z,95299.59
2023-02-17T23:56:58.463Z,95283.81
2023-02-17T23:59:26.344Z,95286.97
